Time;durP1;ratioP1;P1;durP2;ratioP2;P2;SDS_P1;SDS_P2;PMS_P1;PMS_P2;Temp;Humidity;BMP_temperature;BMP_pressure;BME280_temperature;BME280_humidity;BME280_pressure;Samples;Min_cycle;Max_cycle;Signal;HPM_P1;HPM_P2
2022/05/19 00:02:17;;;;;;;;;;;;;;;19.92;71.99;98564.88;5016157;28;19973;-61
2022/05/19 00:04:43;;;;;;;;;;;;;;;20.15;73.14;98575.69;5017282;28;19989;-61
2022/05/19 00:07:10;;;;;;;;;;;;;;;20.16;72.41;98561.84;5019225;28;19926;-61
2022/05/19 00:09:37;;;;;;;;;;;;;;;20.19;72.74;98561.22;5019050;28;19928;-60
2022/05/19 00:12:07;;;;;;;;;;;;;;;20.41;70.96;98558.53;5015831;28;19925;-60
2022/05/19 00:14:33;;;;;;;;;;;;;;;20.12;67.59;98555.44;5016100;28;19985;-61
2022/05/19 00:16:59;;;;;;;;;;;;;;;20.23;70.82;98567.63;5019313;28;20360;-60
2022/05/19 00:19:27;;;;;;;;;;;;;;;20.61;69.06;98565.31;5019299;28;19964;-60
2022/05/19 00:21:54;;;;;;;;;;;;;;;20.70;68.31;98554.50;5016798;28;19964;-61
2022/05/19 00:24:21;;;;;;;;;;;;;;;20.77;66.99;98560.28;5015883;28;20002;-61
2022/05/19 00:26:47;;;;;;;;;;;;;;;20.87;66.91;98549.94;5017459;28;19929;-61
2022/05/19 00:29:13;;;;;;;;;;;;;;;20.76;65.94;98553.25;5018912;28;19922;-60
2022/05/19 00:31:40;;;;;;;;;;;;;;;20.94;66.34;98553.00;5018315;28;20067;-61
2022/05/19 00:34:06;;;;;;;;;;;;;;;21.07;63.84;98548.56;5015736;28;19930;-61
2022/05/19 00:36:34;;;;;;;;;;;;;;;20.97;64.50;98554.28;5015567;28;19932;-60
2022/05/19 00:39:00;;;;;;;;;;;;;;;21.22;63.77;98556.31;5007508;28;19933;-60
2022/05/19 00:41:27;;;;;;;;;;;;;;;20.99;62.43;98546.63;5015515;28;19990;-60
2022/05/19 00:43:57;;;;;;;;;;;;;;;20.48;62.42;98547.22;5016805;28;19956;-61
2022/05/19 00:46:25;;;;;;;;;;;;;;;20.49;63.91;98542.59;5015574;28;19989;-60
2022/05/19 00:48:57;;;;;;;;;;;;;;;20.43;64.96;98550.06;5017831;28;20021;-60
2022/05/19 00:51:28;;;;;;;;;;;;;;;20.17;65.06;98547.19;5018721;28;19925;-61
2022/05/19 00:53:58;;;;;;;;;;;;;;;20.16;66.46;98542.06;5015851;28;19926;-60
2022/05/19 00:56:28;;;;;;;;;;;;;;;19.91;65.90;98544.28;5015536;28;19921;-60
2022/05/19 00:58:56;;;;;;;;;;;;;;;20.14;67.40;98539.66;5017935;28;19926;-60
2022/05/19 01:01:23;;;;;;;;;;;;;;;20.52;66.26;98545.47;5018480;28;20043;-60
2022/05/19 01:03:50;;;;;;;;;;;;;;;20.42;64.48;98543.81;5016729;28;20603;-61
2022/05/19 01:06:18;;;;;;;;;;;;;;;20.44;64.60;98538.09;5015353;28;19972;-60
2022/05/19 01:08:48;;;;;;;;;;;;;;;20.58;65.02;98529.88;5016283;28;20017;-60
2022/05/19 01:11:18;;;;;;;;;;;;;;;20.80;64.46;98529.78;5018945;28;20020;-60
2022/05/19 01:13:44;;;;;;;;;;;;;;;21.10;62.95;98528.97;5020429;28;19925;-61
2022/05/19 01:16:11;;;;;;;;;;;;;;;21.31;61.92;98532.66;5018259;28;20016;-60
2022/05/19 01:18:38;;;;;;;;;;;;;;;21.35;61.18;98525.47;5018702;28;19926;-61
2022/05/19 01:21:06;;;;;;;;;;;;;;;21.48;60.61;98532.69;5004696;28;20003;-60
2022/05/19 01:23:38;;;;;;;;;;;;;;;21.52;60.28;98527.41;5021647;28;19921;-61
2022/05/19 01:26:09;;;;;;;;;;;;;;;21.50;60.16;98525.03;5010862;28;20020;-60
2022/05/19 01:28:37;;;;;;;;;;;;;;;21.57;59.67;98529.19;5018140;28;19989;-61
2022/05/19 01:31:03;;;;;;;;;;;;;;;21.58;59.80;98528.84;5010663;28;19926;-60
2022/05/19 01:33:29;;;;;;;;;;;;;;;21.62;59.48;98526.28;5018444;28;20012;-60
2022/05/19 01:35:56;;;;;;;;;;;;;;;21.68;58.97;98525.00;5021049;28;19952;-60
2022/05/19 01:38:25;;;;;;;;;;;;;;;21.75;58.52;98519.91;5021755;28;19956;-60
2022/05/19 01:41:00;;;;;;;;;;;;;;;21.73;58.28;98525.66;5019348;28;19996;-61
2022/05/19 01:43:30;;;;;;;;;;;;;;;21.73;58.12;98528.38;5018180;28;19937;-61
2022/05/19 01:46:08;;;;;;;;;;;;;;;21.48;58.58;98521.81;5018665;28;19930;-62
2022/05/19 01:48:38;;;;;;;;;;;;;;;21.66;58.12;98521.81;5018126;28;19926;-61
2022/05/19 01:51:07;;;;;;;;;;;;;;;21.70;58.29;98522.75;5010341;28;19925;-60
2022/05/19 01:53:36;;;;;;;;;;;;;;;21.68;58.13;98525.81;5017932;28;19958;-60
2022/05/19 01:56:05;;;;;;;;;;;;;;;21.67;58.29;98518.78;5010495;28;20016;-60
2022/05/19 01:58:36;;;;;;;;;;;;;;;21.69;58.26;98526.63;5018348;28;19997;-60
2022/05/19 02:01:05;;;;;;;;;;;;;;;21.68;58.37;98516.84;5010251;28;20029;-61
2022/05/19 02:03:39;;;;;;;;;;;;;;;21.65;58.28;98520.22;5000894;28;19990;-61
2022/05/19 02:06:09;;;;;;;;;;;;;;;21.64;58.29;98521.31;5010659;28;19993;-60
2022/05/19 02:08:37;;;;;;;;;;;;;;;21.64;58.50;98519.41;5017993;28;20048;-61
2022/05/19 02:11:09;;;;;;;;;;;;;;;21.61;58.62;98511.09;5010297;28;19926;-61
2022/05/19 02:13:35;;;;;;;;;;;;;;;21.62;58.47;98512.69;5019218;28;19949;-60
2022/05/19 02:16:05;;;;;;;;;;;;;;;21.62;58.40;98509.97;5009878;28;19932;-59
2022/05/19 02:18:31;;;;;;;;;;;;;;;21.61;58.48;98501.03;5017850;28;19985;-61
2022/05/19 02:20:59;;;;;;;;;;;;;;;21.60;58.46;98502.13;5020685;28;20012;-60
2022/05/19 02:23:26;;;;;;;;;;;;;;;21.60;58.42;98506.78;5019773;28;20005;-62
2022/05/19 02:25:53;;;;;;;;;;;;;;;21.60;58.22;98495.94;5018705;28;20058;-60
2022/05/19 02:28:23;;;;;;;;;;;;;;;21.56;58.43;98512.06;5016976;28;19997;-61
2022/05/19 02:30:49;;;;;;;;;;;;;;;21.49;58.51;98507.09;5019034;28;20024;-61
2022/05/19 02:33:18;;;;;;;;;;;;;;;21.53;58.51;98505.34;5020641;28;19926;-60
2022/05/19 02:35:45;;;;;;;;;;;;;;;21.50;58.75;98513.34;5019217;28;19925;-61
2022/05/19 02:38:12;;;;;;;;;;;;;;;21.46;58.69;98505.03;5017061;28;19926;-60
2022/05/19 02:40:39;;;;;;;;;;;;;;;21.48;58.88;98510.13;5017417;28;19930;-60
2022/05/19 02:43:06;;;;;;;;;;;;;;;21.47;58.80;98506.63;5020199;28;19926;-60
2022/05/19 02:45:33;;;;;;;;;;;;;;;21.46;59.04;98502.31;5020169;28;19925;-61
2022/05/19 02:48:00;;;;;;;;;;;;;;;21.46;59.18;98501.50;5017042;28;19932;-60
2022/05/19 02:50:28;;;;;;;;;;;;;;;21.47;59.03;98509.34;5016595;28;19949;-60
2022/05/19 02:52:55;;;;;;;;;;;;;;;21.44;59.01;98511.91;5019503;28;19929;-61
2022/05/19 02:55:21;;;;;;;;;;;;;;;21.40;59.28;98509.03;5020108;28;19976;-60
2022/05/19 02:57:48;;;;;;;;;;;;;;;21.38;59.45;98513.97;5018465;28;19932;-61
2022/05/19 03:00:17;;;;;;;;;;;;;;;21.36;59.59;98508.06;5016658;28;20021;-60
2022/05/19 03:02:44;;;;;;;;;;;;;;;21.34;59.62;98504.88;5017504;28;20000;-60
2022/05/19 03:05:11;;;;;;;;;;;;;;;21.29;59.90;98506.94;5020134;28;19936;-60
2022/05/19 03:07:39;;;;;;;;;;;;;;;21.31;60.17;98510.13;5019612;28;19985;-60
2022/05/19 03:10:06;;;;;;;;;;;;;;;21.29;60.11;98517.81;5016622;28;19993;-60
2022/05/19 03:12:33;;;;;;;;;;;;;;;21.24;60.25;98516.03;5016570;28;19984;-59
2022/05/19 03:14:59;;;;;;;;;;;;;;;21.22;60.47;98510.13;5019581;28;20002;-61
2022/05/19 03:17:26;;;;;;;;;;;;;;;21.25;60.45;98512.22;5019775;28;20452;-60
2022/05/19 03:19:53;;;;;;;;;;;;;;;21.23;60.46;98510.94;5017676;28;19926;-60
2022/05/19 03:22:19;;;;;;;;;;;;;;;21.20;60.61;98515.06;5016522;28;19929;-61
2022/05/19 03:24:47;;;;;;;;;;;;;;;21.23;60.63;98521.78;5017788;28;19926;-60
2022/05/19 03:27:14;;;;;;;;;;;;;;;21.17;60.82;98526.56;5019674;28;19996;-60
2022/05/19 03:29:40;;;;;;;;;;;;;;;21.22;60.92;98523.72;5018778;28;19948;-60
2022/05/19 03:32:07;;;;;;;;;;;;;;;21.20;60.81;98514.28;5016472;28;19929;-61
2022/05/19 03:34:33;;;;;;;;;;;;;;;21.18;61.18;98525.44;5015699;28;20057;-61
2022/05/19 03:37:02;;;;;;;;;;;;;;;21.17;61.15;98515.69;5019485;28;19981;-60
2022/05/19 03:39:28;;;;;;;;;;;;;;;21.13;61.41;98520.19;5019697;28;19997;-61
2022/05/19 03:41:56;;;;;;;;;;;;;;;21.15;61.44;98525.28;5017165;28;19953;-61
2022/05/19 03:44:22;;;;;;;;;;;;;;;21.12;61.78;98515.84;5016098;28;19925;-61
2022/05/19 03:46:49;;;;;;;;;;;;;;;21.11;61.76;98516.97;5017794;28;19976;-60
2022/05/19 03:49:15;;;;;;;;;;;;;;;21.09;62.08;98516.47;5001920;28;19992;-60
2022/05/19 03:51:42;;;;;;;;;;;;;;;21.06;62.23;98519.81;5018422;28;19997;-61
2022/05/19 03:54:08;;;;;;;;;;;;;;;21.13;62.22;98525.63;5016091;28;19929;-61
2022/05/19 03:56:35;;;;;;;;;;;;;;;21.06;62.92;98519.81;5016103;28;19933;-60
2022/05/19 03:59:04;;;;;;;;;;;;;;;20.63;65.09;98521.59;5008036;28;19926;-61
2022/05/19 04:01:30;;;;;;;;;;;;;;;20.54;67.00;98518.84;5015861;28;19947;-60
2022/05/19 04:03:57;;;;;;;;;;;;;;;20.64;67.25;98523.19;5018712;28;19979;-60
2022/05/19 04:06:24;;;;;;;;;;;;;;;20.33;69.17;98526.69;5019236;28;19933;-61
2022/05/19 04:08:50;;;;;;;;;;;;;;;20.41;70.06;98525.97;5017246;28;19925;-60
2022/05/19 04:11:17;;;;;;;;;;;;;;;20.53;69.62;98521.84;5016063;28;19932;-59
2022/05/19 04:13:43;;;;;;;;;;;;;;;20.43;68.39;98522.91;5017108;28;19964;-61
2022/05/19 04:16:11;;;;;;;;;;;;;;;19.88;73.18;98522.41;5016079;28;19965;-60
2022/05/19 04:18:38;;;;;;;;;;;;;;;19.43;76.37;98521.59;5016173;28;19939;-60
2022/05/19 04:21:05;;;;;;;;;;;;;;;18.99;79.61;98522.25;5019170;28;20022;-61
2022/05/19 04:23:31;;;;;;;;;;;;;;;19.14;81.78;98519.22;5019288;28;19925;-61
2022/05/19 04:25:58;;;;;;;;;;;;;;;18.72;82.04;98520.34;5016048;28;19932;-61
2022/05/19 04:28:24;;;;;;;;;;;;;;;18.76;83.05;98520.53;5015726;28;19925;-61
2022/05/19 04:30:51;;;;;;;;;;;;;;;18.79;83.15;98519.94;5017588;28;20069;-61
2022/05/19 04:33:18;;;;;;;;;;;;;;;18.71;83.18;98526.06;5019014;28;19926;-60
2022/05/19 04:35:45;;;;;;;;;;;;;;;19.17;81.12;98528.63;5017738;28;20036;-60
2022/05/19 04:38:12;;;;;;;;;;;;;;;19.44;78.55;98528.59;5015544;28;19925;-60
2022/05/19 04:40:41;;;;;;;;;;;;;;;19.07;80.57;98528.84;5016063;28;20489;-60
2022/05/19 04:43:09;;;;;;;;;;;;;;;18.98;81.54;98531.44;5019766;28;19926;-60
2022/05/19 04:45:35;;;;;;;;;;;;;;;19.16;80.98;98532.44;5019817;28;19947;-60
2022/05/19 04:48:02;;;;;;;;;;;;;;;19.24;80.14;98529.81;5013265;28;19985;-59
2022/05/19 04:50:30;;;;;;;;;;;;;;;19.45;79.15;98529.41;5002694;28;19926;-60
2022/05/19 04:52:57;;;;;;;;;;;;;;;19.75;77.18;98523.25;5022325;28;19961;-60
2022/05/19 04:55:23;;;;;;;;;;;;;;;19.99;75.91;98526.50;5022878;28;19965;-60
2022/05/19 04:57:50;;;;;;;;;;;;;;;20.26;73.91;98528.28;5020815;28;19996;-60
2022/05/19 05:00:16;;;;;;;;;;;;;;;20.43;72.55;98515.59;5019494;28;19922;-60
2022/05/19 05:02:43;;;;;;;;;;;;;;;20.51;72.15;98516.75;5019318;28;19985;-61
2022/05/19 05:05:10;;;;;;;;;;;;;;;20.64;71.25;98520.47;5021928;28;19941;-61
2022/05/19 05:07:37;;;;;;;;;;;;;;;20.70;70.89;98527.38;5021567;28;19976;-60
2022/05/19 05:10:04;;;;;;;;;;;;;;;20.62;71.46;98525.41;5010491;28;19948;-61
2022/05/19 05:12:31;;;;;;;;;;;;;;;20.65;71.24;98519.34;5018285;28;19985;-61
2022/05/19 05:14:57;;;;;;;;;;;;;;;20.72;70.95;98525.13;5021236;28;19957;-61
2022/05/19 05:17:23;;;;;;;;;;;;;;;20.72;70.95;98516.97;5021877;28;20056;-60
2022/05/19 05:19:50;;;;;;;;;;;;;;;20.73;70.50;98527.53;5019776;28;19957;-60
2022/05/19 05:22:16;;;;;;;;;;;;;;;20.54;71.63;98529.69;5018490;28;19997;-61
2022/05/19 05:24:44;;;;;;;;;;;;;;;20.59;71.44;98531.44;5018993;28;19932;-60
2022/05/19 05:27:10;;;;;;;;;;;;;;;20.51;71.78;98530.31;5021678;28;20017;-61
2022/05/19 05:29:36;;;;;;;;;;;;;;;20.12;74.56;98528.31;5021319;28;19925;-61
2022/05/19 05:32:03;;;;;;;;;;;;;;;20.15;74.78;98526.88;5010238;28;19989;-60
2022/05/19 05:34:30;;;;;;;;;;;;;;;20.48;73.02;98517.38;5017845;28;19981;-59
2022/05/19 05:36:56;;;;;;;;;;;;;;;20.73;71.69;98518.59;5020361;28;19936;-61
2022/05/19 05:39:23;;;;;;;;;;;;;;;20.74;72.49;98518.25;5021226;28;19925;-60
2022/05/19 05:41:50;;;;;;;;;;;;;;;20.93;70.38;98526.16;5019237;28;19992;-60
2022/05/19 05:44:17;;;;;;;;;;;;;;;21.21;68.83;98516.66;5018015;28;19989;-60
2022/05/19 05:46:44;;;;;;;;;;;;;;;21.48;67.54;98526.44;5018642;28;20409;-60
2022/05/19 05:49:11;;;;;;;;;;;;;;;21.48;67.12;98529.16;5020878;28;20028;-61
2022/05/19 05:51:37;;;;;;;;;;;;;;;21.34;67.55;98529.31;5020682;28;19965;-60
2022/05/19 05:54:03;;;;;;;;;;;;;;;21.57;67.11;98526.47;5017536;28;19926;-60
2022/05/19 05:56:30;;;;;;;;;;;;;;;21.11;65.37;98530.53;5017362;28;19961;-60
2022/05/19 05:58:57;;;;;;;;;;;;;;;20.74;65.80;98536.47;5020078;28;20433;-60
2022/05/19 06:01:24;;;;;;;;;;;;;;;20.33;65.91;98526.69;5020779;28;19932;-60
2022/05/19 06:03:50;;;;;;;;;;;;;;;20.24;68.01;98528.53;5018926;28;19962;-61
2022/05/19 06:06:17;;;;;;;;;;;;;;;20.26;68.40;98523.66;5017687;28;19926;-61
2022/05/19 06:08:43;;;;;;;;;;;;;;;20.27;69.96;98525.22;5018452;28;19925;-61
2022/05/19 06:11:10;;;;;;;;;;;;;;;20.55;67.62;98525.06;5020796;28;19977;-61
2022/05/19 06:13:36;;;;;;;;;;;;;;;20.66;65.37;98519.06;5020410;28;19989;-60
2022/05/19 06:16:05;;;;;;;;;;;;;;;20.94;65.54;98528.56;5009464;28;19926;-61
2022/05/19 06:18:31;;;;;;;;;;;;;;;20.96;61.89;98529.03;5017091;28;19926;-61
2022/05/19 06:20:58;;;;;;;;;;;;;;;20.72;60.59;98531.38;5002744;28;19926;-61
2022/05/19 06:23:24;;;;;;;;;;;;;;;20.44;58.71;98529.97;5020690;28;19951;-61
2022/05/19 06:25:50;;;;;;;;;;;;;;;20.22;59.41;98528.06;5018597;28;20024;-60
2022/05/19 06:28:17;;;;;;;;;;;;;;;20.44;59.56;98533.47;5017169;28;19993;-61
2022/05/19 06:30:44;;;;;;;;;;;;;;;20.62;58.44;98541.69;5017937;28;19994;-61
2022/05/19 06:33:17;;;;;;;;;;;;;;;20.61;57.55;98531.97;5020448;28;19929;-61
2022/05/19 06:35:44;;;;;;;;;;;;;;;20.21;57.71;98531.09;5019523;28;19964;-60
2022/05/19 06:38:10;;;;;;;;;;;;;;;20.09;58.27;98528.13;5016838;28;19929;-61
2022/05/19 06:40:37;;;;;;;;;;;;;;;20.40;59.50;98523.53;5016725;28;19926;-59
2022/05/19 06:43:06;;;;;;;;;;;;;;;20.48;58.70;98522.00;5020252;28;19989;-60
2022/05/19 06:45:33;;;;;;;;;;;;;;;20.26;59.76;98518.22;5020116;28;19993;-60
2022/05/19 06:47:59;;;;;;;;;;;;;;;20.49;60.21;98527.09;5017021;28;19993;-60
2022/05/19 06:50:27;;;;;;;;;;;;;;;21.02;60.68;98525.06;5016682;28;20013;-60
2022/05/19 06:52:55;;;;;;;;;;;;;;;21.21;59.12;98524.81;5019130;28;19964;-61
2022/05/19 06:55:23;;;;;;;;;;;;;;;20.94;58.84;98525.84;5020080;28;20390;-62
2022/05/19 06:57:49;;;;;;;;;;;;;;;20.82;56.33;98530.28;5018172;28;19992;-61
2022/05/19 07:00:17;;;;;;;;;;;;;;;20.21;55.21;98526.44;5016606;28;20006;-60
2022/05/19 07:02:44;;;;;;;;;;;;;;;19.98;56.07;98526.78;5017556;28;19989;-60
2022/05/19 07:05:11;;;;;;;;;;;;;;;19.86;56.80;98540.91;5019826;28;19981;-60
2022/05/19 07:07:39;;;;;;;;;;;;;;;19.82;57.05;98529.06;5019801;28;19926;-61
2022/05/19 07:10:09;;;;;;;;;;;;;;;19.66;57.53;98531.34;5015832;28;20465;-61
2022/05/19 07:12:37;;;;;;;;;;;;;;;19.64;58.60;98532.75;5016475;28;19930;-61
2022/05/19 07:15:04;;;;;;;;;;;;;;;19.80;59.35;98525.88;5008743;28;19922;-61
2022/05/19 07:17:30;;;;;;;;;;;;;;;19.90;59.23;98526.41;5016482;28;19961;-60
2022/05/19 07:22:46;;;;;;;;;;;;;;;20.28;59.31;98529.56;5018902;28;19956;-60
2022/05/19 07:25:12;;;;;;;;;;;;;;;20.36;59.07;98533.44;5016575;28;19930;-60
2022/05/19 07:27:38;;;;;;;;;;;;;;;20.53;58.75;98527.28;5016794;28;19925;-60
2022/05/19 07:30:05;;;;;;;;;;;;;;;20.52;59.00;98531.13;5020251;28;19985;-60
2022/05/19 07:32:32;;;;;;;;;;;;;;;21.08;57.69;98533.06;5019745;28;19925;-60
2022/05/19 07:34:58;;;;;;;;;;;;;;;20.65;57.81;98532.91;5016846;28;19991;-60
2022/05/19 07:37:25;;;;;;;;;;;;;;;20.86;59.16;98520.38;5016329;28;19934;-60
2022/05/19 07:39:53;;;;;;;;;;;;;;;20.47;58.65;98518.47;5018146;28;19948;-60
2022/05/19 07:42:20;;;;;;;;;;;;;;;21.01;59.53;98518.03;5014920;28;19989;-60
2022/05/19 07:44:46;;;;;;;;;;;;;;;21.07;57.37;98518.69;5017161;28;19926;-60
2022/05/19 07:47:14;;;;;;;;;;;;;;;20.62;58.49;98514.53;5019394;28;19929;-60
2022/05/19 07:49:40;;;;;;;;;;;;;;;20.45;58.80;98518.81;5018487;28;19925;-61
2022/05/19 07:52:07;;;;;;;;;;;;;;;20.46;58.57;98512.25;5015911;28;19976;-60
2022/05/19 07:54:34;;;;;;;;;;;;;;;20.45;58.73;98523.44;5015734;28;19932;-60
2022/05/19 07:57:01;;;;;;;;;;;;;;;20.28;59.87;98528.75;5019098;28;19972;-60
2022/05/19 07:59:42;;;;;;;;;;;;;;;20.51;59.57;98521.38;5019241;28;19925;-61
2022/05/19 08:02:09;;;;;;;;;;;;;;;20.42;61.20;98518.63;5008649;28;19997;-60
2022/05/19 08:04:35;;;;;;;;;;;;;;;20.63;61.13;98516.16;5015482;28;19928;-61
2022/05/19 08:07:01;;;;;;;;;;;;;;;20.53;61.39;98516.44;5018768;28;19993;-61
2022/05/19 08:12:17;;;;;;;;;;;;;;;20.63;62.60;98516.97;5008807;28;19930;-64
2022/05/19 08:17:27;;;;;;;;;;;;;;;20.64;62.53;98512.34;5018388;28;19925;-61
2022/05/19 08:19:54;;;;;;;;;;;;;;;20.89;62.16;98506.97;5016265;28;19989;-61
2022/05/19 08:22:20;;;;;;;;;;;;;;;21.18;62.00;98506.44;5018933;28;19926;-60
2022/05/19 08:24:49;;;;;;;;;;;;;;;21.13;60.79;98509.31;5019981;28;19957;-60
2022/05/19 08:27:17;;;;;;;;;;;;;;;21.30;60.32;98497.66;5022246;28;19926;-61
2022/05/19 08:29:43;;;;;;;;;;;;;;;21.30;61.16;98503.09;5020991;28;19988;-60
2022/05/19 08:32:10;;;;;;;;;;;;;;;21.08;61.15;98514.84;5018809;28;20360;-61
2022/05/19 08:34:36;;;;;;;;;;;;;;;21.31;61.67;98510.94;5018761;28;19932;-61
2022/05/19 08:37:02;;;;;;;;;;;;;;;21.23;61.51;98511.69;5010852;28;19985;-60
2022/05/19 08:39:29;;;;;;;;;;;;;;;21.89;59.82;98506.94;5018444;28;19926;-60
2022/05/19 08:41:59;;;;;;;;;;;;;;;22.50;59.03;98511.91;5019876;28;19926;-62
2022/05/19 08:44:28;;;;;;;;;;;;;;;22.02;58.68;98508.69;5018650;28;19926;-61
2022/05/19 08:46:57;;;;;;;;;;;;;;;21.92;59.71;98506.31;5021322;28;19957;-60
2022/05/19 08:49:28;;;;;;;;;;;;;;;22.22;58.93;98508.00;5022060;28;19932;-60
2022/05/19 08:51:57;;;;;;;;;;;;;;;21.84;59.32;98504.38;5019461;28;19967;-61
2022/05/19 08:54:25;;;;;;;;;;;;;;;21.88;60.14;98502.63;5018507;28;19922;-60
2022/05/19 08:56:56;;;;;;;;;;;;;;;22.05;60.07;98494.44;5020574;28;19926;-61
2022/05/19 08:59:31;;;;;;;;;;;;;;;21.86;60.77;98491.25;5022042;28;20004;-61
2022/05/19 09:02:02;;;;;;;;;;;;;;;21.76;61.03;98483.41;5019407;28;20349;-60
2022/05/19 09:04:33;;;;;;;;;;;;;;;22.34;60.49;98488.28;5018848;28;19957;-61
2022/05/19 09:09:56;;;;;;;;;;;;;;;21.95;60.48;98486.63;5020106;28;19926;-61
2022/05/19 09:12:23;;;;;;;;;;;;;;;21.98;60.77;98485.97;5018499;28;19930;-61
2022/05/19 09:14:52;;;;;;;;;;;;;;;22.05;61.83;98484.38;5020008;28;19926;-60
2022/05/19 09:17:25;;;;;;;;;;;;;;;22.15;61.24;98491.41;5021759;28;19922;-60
2022/05/19 09:19:53;;;;;;;;;;;;;;;22.17;60.98;98489.13;5019696;28;19957;-61
2022/05/19 09:22:21;;;;;;;;;;;;;;;22.83;60.17;98473.22;5018335;28;19957;-60
2022/05/19 09:24:48;;;;;;;;;;;;;;;22.40;59.89;98481.56;5019653;28;19965;-61
2022/05/19 09:27:16;;;;;;;;;;;;;;;22.26;60.88;98481.75;5021605;28;19925;-61
2022/05/19 09:29:43;;;;;;;;;;;;;;;22.50;60.51;98475.72;5020797;28;19933;-61
2022/05/19 09:32:15;;;;;;;;;;;;;;;22.37;60.00;98466.69;5017509;28;19960;-61
2022/05/19 09:34:44;;;;;;;;;;;;;;;22.46;60.40;98470.16;5018510;28;19989;-60
2022/05/19 09:37:11;;;;;;;;;;;;;;;22.71;60.35;98470.41;5021366;28;19932;-61
2022/05/19 09:39:47;;;;;;;;;;;;;;;22.86;59.74;98473.34;5020787;28;19921;-61
2022/05/19 09:42:16;;;;;;;;;;;;;;;23.29;59.19;98475.78;5017880;28;19993;-61
2022/05/19 09:44:45;;;;;;;;;;;;;;;23.03;58.04;98473.22;5018401;28;19926;-61
2022/05/19 09:47:19;;;;;;;;;;;;;;;22.76;59.38;98467.47;5021165;28;20354;-61
2022/05/19 09:49:52;;;;;;;;;;;;;;;22.80;59.57;98461.06;5019920;28;19992;-61
2022/05/19 09:52:23;;;;;;;;;;;;;;;23.00;59.97;98465.72;5017701;28;19936;-60
2022/05/19 09:54:53;;;;;;;;;;;;;;;23.23;58.84;98466.22;5019589;28;19926;-61
2022/05/19 09:57:24;;;;;;;;;;;;;;;23.14;58.76;98473.66;5021141;28;20458;-61
2022/05/19 09:59:52;;;;;;;;;;;;;;;23.21;58.79;98462.22;5019121;28;19957;-61
2022/05/19 10:02:25;;;;;;;;;;;;;;;23.19;58.37;98459.81;5017613;28;20111;-60
2022/05/19 10:04:57;;;;;;;;;;;;;;;23.25;58.68;98457.69;5019335;28;19964;-61
2022/05/19 10:07:25;;;;;;;;;;;;;;;23.20;58.63;98450.53;5020892;28;19937;-60
2022/05/19 10:09:52;;;;;;;;;;;;;;;23.33;58.49;98444.03;5018704;28;19967;-60
2022/05/19 10:12:22;;;;;;;;;;;;;;;23.44;58.37;98450.69;5017183;28;20009;-61
2022/05/19 10:14:51;;;;;;;;;;;;;;;23.67;58.18;98442.16;5018888;28;19971;-61
2022/05/19 10:17:22;;;;;;;;;;;;;;;24.07;58.13;98435.00;5020665;28;20425;-61
2022/05/19 10:19:56;;;;;;;;;;;;;;;23.81;58.18;98448.09;5019424;28;20421;-60
2022/05/19 10:22:40;;;;;;;;;;;;;;;24.02;57.80;98444.16;5017196;28;19997;-61
2022/05/19 10:25:18;;;;;;;;;;;;;;;24.09;57.55;98443.63;5009462;28;19933;-61
2022/05/19 10:33:32;;;;;;;;;;;;;;;24.17;57.21;98437.28;5005240;28;19989;-60
2022/05/19 10:36:05;;;;;;;;;;;;;;;23.98;57.59;98432.38;5019768;28;19988;-60
2022/05/19 10:38:38;;;;;;;;;;;;;;;24.01;57.26;98434.41;5020242;28;19925;-61
2022/05/19 10:41:13;;;;;;;;;;;;;;;24.09;58.21;98419.06;5009323;28;20001;-62
2022/05/19 10:43:45;;;;;;;;;;;;;;;24.11;58.60;98427.72;5016950;28;19936;-60
2022/05/19 10:46:14;;;;;;;;;;;;;;;24.05;58.10;98420.88;5017012;28;20025;-60
2022/05/19 10:48:57;;;;;;;;;;;;;;;24.12;58.54;98408.31;5017337;28;19930;-61
2022/05/19 10:51:28;;;;;;;;;;;;;;;24.24;58.23;98409.44;5019954;28;20459;-60
2022/05/19 10:54:04;;;;;;;;;;;;;;;24.24;58.34;98412.16;5017791;28;19957;-61
2022/05/19 10:56:43;;;;;;;;;;;;;;;24.33;58.91;98405.47;5016610;28;19926;-60
2022/05/19 10:59:23;;;;;;;;;;;;;;;24.52;58.87;98400.25;5009592;28;19930;-61
2022/05/19 11:01:55;;;;;;;;;;;;;;;24.65;58.28;98399.09;5000990;28;20489;-60
2022/05/19 11:04:44;;;;;;;;;;;;;;;24.80;58.81;98396.78;5019957;28;19925;-60
2022/05/19 11:08:08;;;;;;;;;;;;;;;24.81;57.83;98401.97;5140294;27;20010;-60
2022/05/19 11:10:37;;;;;;;;;;;;;;;24.80;57.98;98392.13;5139795;28;20022;-61
2022/05/19 11:13:13;;;;;;;;;;;;;;;24.83;58.22;98401.59;5124524;28;19935;-60
2022/05/19 11:15:42;;;;;;;;;;;;;;;24.80;58.08;98385.88;5139483;28;19998;-61
2022/05/19 11:18:12;;;;;;;;;;;;;;;24.92;58.57;98386.66;5136554;28;19956;-61
2022/05/19 11:20:41;;;;;;;;;;;;;;;24.85;58.52;98393.88;5136639;28;20424;-60
2022/05/19 11:23:13;;;;;;;;;;;;;;;24.99;58.38;98386.09;5139992;28;19955;-60
2022/05/19 11:28:33;;;;;;;;;;;;;;;25.04;58.26;98385.84;5136259;28;19928;-61
2022/05/19 11:31:02;;;;;;;;;;;;;;;25.18;58.54;98380.78;5138235;28;19974;-60
2022/05/19 11:33:33;;;;;;;;;;;;;;;25.32;58.36;98381.19;5139629;28;19983;-61
2022/05/19 11:36:02;;;;;;;;;;;;;;;25.37;57.29;98369.22;5136481;28;19973;-61
2022/05/19 11:38:32;;;;;;;;;;;;;;;25.36;58.06;98365.69;5135857;28;19930;-61
2022/05/19 11:41:01;;;;;;;;;;;;;;;25.49;58.74;98377.41;5138892;28;20443;-61
2022/05/19 11:43:32;;;;;;;;;;;;;;;25.62;57.66;98368.00;5139350;28;19923;-61
2022/05/19 11:46:02;;;;;;;;;;;;;;;25.75;58.40;98374.97;5136532;28;19924;-61
2022/05/19 11:56:57;;;;;;;;;;;;;;;26.03;57.50;98348.31;5138538;28;19934;-61
2022/05/19 11:59:25;;;;;;;;;;;;;;;26.15;57.00;98347.47;5139238;28;19995;-62
2022/05/19 12:01:52;;;;;;;;;;;;;;;26.05;57.25;98348.00;5137217;28;19980;-61
2022/05/19 12:04:24;;;;;;;;;;;;;;;26.22;57.14;98347.66;5135735;28;19987;-62
2022/05/19 12:06:55;;;;;;;;;;;;;;;26.15;56.45;98347.47;5137262;28;19923;-61
2022/05/19 12:09:25;;;;;;;;;;;;;;;26.30;56.45;98346.69;5139086;28;19977;-61
2022/05/19 12:11:54;;;;;;;;;;;;;;;26.24;56.28;98332.44;5136997;28;19991;-61
2022/05/19 12:14:31;;;;;;;;;;;;;;;26.34;54.69;98339.31;5135660;28;19924;-61
2022/05/19 12:17:09;;;;;;;;;;;;;;;26.47;54.91;98340.81;5138006;28;19999;-61
2022/05/19 12:19:39;;;;;;;;;;;;;;;26.12;56.87;98334.47;5124494;28;19923;-61
2022/05/19 12:22:06;;;;;;;;;;;;;;;26.25;57.09;98334.03;5113318;28;19995;-60
2022/05/19 12:24:36;;;;;;;;;;;;;;;26.39;55.84;98341.00;5121187;28;19930;-61
2022/05/19 12:27:11;;;;;;;;;;;;;;;26.35;54.34;98329.97;5112951;28;19931;-61
2022/05/19 12:29:40;;;;;;;;;;;;;;;26.33;54.93;98328.75;5120942;28;19936;-60
2022/05/19 12:32:09;;;;;;;;;;;;;;;26.54;55.82;98332.75;5112949;28;19987;-61
2022/05/19 12:34:44;;;;;;;;;;;;;;;26.65;55.87;98327.50;5120945;28;19935;-61
2022/05/19 12:37:30;;;;;;;;;;;;;;;26.81;55.46;98331.81;5113659;28;19924;-62
2022/05/19 12:40:18;;;;;;;;;;;;;;;26.87;54.31;98334.25;5124041;28;19928;-61
2022/05/19 12:42:44;;;;;;;;;;;;;;;27.03;53.59;98326.78;5117039;28;19946;-61
2022/05/19 12:45:16;;;;;;;;;;;;;;;27.00;53.49;98327.50;5124569;28;19963;-61
2022/05/19 12:47:55;;;;;;;;;;;;;;;26.89;54.61;98326.50;5123600;28;19930;-61
2022/05/19 12:50:25;;;;;;;;;;;;;;;27.13;54.32;98320.72;5120605;28;19950;-60
2022/05/19 12:52:56;;;;;;;;;;;;;;;26.86;54.51;98321.72;5122255;28;19952;-61
2022/05/19 12:55:44;;;;;;;;;;;;;;;27.01;53.80;98316.19;5123906;28;19920;-62
2022/05/19 12:58:30;;;;;;;;;;;;;;;27.11;54.34;98317.56;5112997;28;19927;-61
2022/05/19 13:00:56;;;;;;;;;;;;;;;27.18;54.34;98306.72;5123086;28;20370;-61
2022/05/19 13:03:25;;;;;;;;;;;;;;;27.22;53.80;98310.31;5124149;28;19970;-61
2022/05/19 13:05:53;;;;;;;;;;;;;;;27.13;54.56;98315.25;5122146;28;20897;-61
2022/05/19 13:08:31;;;;;;;;;;;;;;;27.19;55.06;98303.63;5120738;28;19963;-60
2022/05/19 13:11:00;;;;;;;;;;;;;;;27.24;54.62;98305.25;5123337;28;19951;-61
2022/05/19 13:13:29;;;;;;;;;;;;;;;27.06;55.30;98309.59;5124064;28;19958;-61
2022/05/19 13:15:57;;;;;;;;;;;;;;;27.38;55.06;98302.00;5121587;28;19955;-60
2022/05/19 13:18:25;;;;;;;;;;;;;;;27.50;55.08;98299.91;5120632;28;19947;-61
2022/05/19 13:20:52;;;;;;;;;;;;;;;27.54;54.50;98294.50;5122840;28;19970;-61
2022/05/19 13:23:20;;;;;;;;;;;;;;;27.72;53.87;98296.41;5123746;28;19994;-61
2022/05/19 13:25:48;;;;;;;;;;;;;;;27.80;52.69;98295.34;5122401;28;20059;-61